sensor_id;sensor_type;location;lat;lon;timestamp;pressure;altitude;pressure_sealevel;temperature;humidity
7918;BME280;4004;42.624;23.386;2023-02-01T00:00:10;94198.25;;;1.39;95.15
7918;BME280;4004;42.624;23.386;2023-02-01T00:02:38;94198.53;;;1.37;95.80
7918;BME280;4004;42.624;23.386;2023-02-01T00:05:07;94198.94;;;1.31;95.90
7918;BME280;4004;42.624;23.386;2023-02-01T00:07:34;94202.28;;;1.36;95.90
7918;BME280;4004;42.624;23.386;2023-02-01T00:10:00;94201.00;;;1.34;96.31
7918;BME280;4004;42.624;23.386;2023-02-01T00:12:28;94188.16;;;1.41;95.81
7918;BME280;4004;42.624;23.386;2023-02-01T00:14:55;94196.09;;;1.41;95.80
7918;BME280;4004;42.624;23.386;2023-02-01T00:17:22;94191.09;;;1.26;95.02
7918;BME280;4004;42.624;23.386;2023-02-01T00:19:50;94196.22;;;1.36;95.47
7918;BME280;4004;42.624;23.386;2023-02-01T00:22:17;94193.06;;;1.34;94.98
7918;BME280;4004;42.624;23.386;2023-02-01T00:24:43;94196.88;;;1.28;94.51
7918;BME280;4004;42.624;23.386;2023-02-01T00:27:10;94188.94;;;1.28;94.39
7918;BME280;4004;42.624;23.386;2023-02-01T00:29:43;94186.00;;;1.29;94.27
7918;BME280;4004;42.624;23.386;2023-02-01T00:32:09;94186.47;;;1.17;94.07
7918;BME280;4004;42.624;23.386;2023-02-01T00:34:36;94191.97;;;1.07;94.67
7918;BME280;4004;42.624;23.386;2023-02-01T00:37:05;94194.81;;;1.11;95.35
7918;BME280;4004;42.624;23.386;2023-02-01T00:39:31;94185.59;;;1.08;94.94
7918;BME280;4004;42.624;23.386;2023-02-01T00:41:59;94182.06;;;1.13;94.15
7918;BME280;4004;42.624;23.386;2023-02-01T00:44:26;94180.28;;;1.08;93.75
7918;BME280;4004;42.624;23.386;2023-02-01T00:46:53;94180.69;;;1.15;93.36
7918;BME280;4004;42.624;23.386;2023-02-01T00:49:20;94182.28;;;1.16;92.24
7918;BME280;4004;42.624;23.386;2023-02-01T00:51:47;94176.38;;;1.19;92.44
7918;BME280;4004;42.624;23.386;2023-02-01T00:54:15;94174.81;;;1.18;91.78
7918;BME280;4004;42.624;23.386;2023-02-01T00:56:42;94162.56;;;1.22;91.48
7918;BME280;4004;42.624;23.386;2023-02-01T00:59:10;94167.38;;;1.20;90.17
7918;BME280;4004;42.624;23.386;2023-02-01T01:01:37;94166.47;;;0.97;90.25
7918;BME280;4004;42.624;23.386;2023-02-01T01:04:04;94168.22;;;1.02;89.03
7918;BME280;4004;42.624;23.386;2023-02-01T01:06:32;94173.78;;;0.87;89.19
7918;BME280;4004;42.624;23.386;2023-02-01T01:09:01;94166.94;;;0.86;89.85
7918;BME280;4004;42.624;23.386;2023-02-01T01:11:31;94167.72;;;0.72;89.60
7918;BME280;4004;42.624;23.386;2023-02-01T01:13:59;94170.34;;;0.72;89.00
7918;BME280;4004;42.624;23.386;2023-02-01T01:16:28;94163.56;;;0.66;88.55
7918;BME280;4004;42.624;23.386;2023-02-01T01:18:56;94171.22;;;0.68;88.74
7918;BME280;4004;42.624;23.386;2023-02-01T01:21:22;94164.34;;;0.67;88.13
7918;BME280;4004;42.624;23.386;2023-02-01T01:23:50;94178.28;;;0.72;88.40
7918;BME280;4004;42.624;23.386;2023-02-01T01:26:18;94169.75;;;0.75;88.13
7918;BME280;4004;42.624;23.386;2023-02-01T01:28:47;94173.59;;;0.83;87.31
7918;BME280;4004;42.624;23.386;2023-02-01T01:31:15;94166.56;;;0.92;85.52
7918;BME280;4004;42.624;23.386;2023-02-01T01:33:42;94173.63;;;0.97;85.14
7918;BME280;4004;42.624;23.386;2023-02-01T01:36:10;94174.13;;;0.99;84.04
7918;BME280;4004;42.624;23.386;2023-02-01T01:38:37;94169.81;;;1.03;83.55
7918;BME280;4004;42.624;23.386;2023-02-01T01:41:04;94182.38;;;1.11;81.92
7918;BME280;4004;42.624;23.386;2023-02-01T01:43:49;94191.28;;;1.01;81.13
7918;BME280;4004;42.624;23.386;2023-02-01T01:46:17;94182.16;;;0.94;80.47
7918;BME280;4004;42.624;23.386;2023-02-01T01:48:45;94193.63;;;0.89;80.15
7918;BME280;4004;42.624;23.386;2023-02-01T01:51:17;94190.66;;;0.91;79.89
7918;BME280;4004;42.624;23.386;2023-02-01T01:53:48;94194.41;;;0.90;80.33
7918;BME280;4004;42.624;23.386;2023-02-01T01:56:17;94181.44;;;0.88;80.26
7918;BME280;4004;42.624;23.386;2023-02-01T01:58:44;94189.28;;;0.93;79.88
7918;BME280;4004;42.624;23.386;2023-02-01T02:01:12;94194.13;;;1.05;79.06
7918;BME280;4004;42.624;23.386;2023-02-01T02:03:41;94184.31;;;0.92;79.85
7918;BME280;4004;42.624;23.386;2023-02-01T02:06:12;94190.66;;;0.77;80.25
7918;BME280;4004;42.624;23.386;2023-02-01T02:08:43;94177.88;;;0.65;80.42
7918;BME280;4004;42.624;23.386;2023-02-01T02:11:12;94171.97;;;0.54;81.49
7918;BME280;4004;42.624;23.386;2023-02-01T02:13:46;94179.22;;;0.49;81.86
7918;BME280;4004;42.624;23.386;2023-02-01T02:16:24;94159.22;;;0.43;82.07
7918;BME280;4004;42.624;23.386;2023-02-01T02:19:07;94162.44;;;0.39;82.20
7918;BME280;4004;42.624;23.386;2023-02-01T02:21:52;94165.16;;;0.34;82.34
7918;BME280;4004;42.624;23.386;2023-02-01T02:24:39;94155.25;;;0.26;82.79
7918;BME280;4004;42.624;23.386;2023-02-01T02:27:17;94149.91;;;0.12;83.42
7918;BME280;4004;42.624;23.386;2023-02-01T02:33:20;94153.84;;;0.15;83.65
7918;BME280;4004;42.624;23.386;2023-02-01T02:35:55;94158.34;;;-0.05;83.70
7918;BME280;4004;42.624;23.386;2023-02-01T02:38:30;94155.44;;;-0.03;83.99
7918;BME280;4004;42.624;23.386;2023-02-01T02:41:04;94153.06;;;-0.05;84.18
7918;BME280;4004;42.624;23.386;2023-02-01T02:43:37;94159.72;;;-0.07;84.17
7918;BME280;4004;42.624;23.386;2023-02-01T02:46:30;94162.50;;;0.02;84.12
7918;BME280;4004;42.624;23.386;2023-02-01T02:49:22;94153.16;;;-0.10;83.98
7918;BME280;4004;42.624;23.386;2023-02-01T02:51:54;94146.72;;;-0.04;83.77
7918;BME280;4004;42.624;23.386;2023-02-01T02:54:42;94150.28;;;0.06;83.77
7918;BME280;4004;42.624;23.386;2023-02-01T02:57:19;94135.00;;;0.03;83.57
7918;BME280;4004;42.624;23.386;2023-02-01T03:00:06;94140.06;;;-0.01;83.37
7918;BME280;4004;42.624;23.386;2023-02-01T03:02:53;94148.22;;;0.03;83.06
7918;BME280;4004;42.624;23.386;2023-02-01T03:05:42;94150.69;;;0.13;82.59
7918;BME280;4004;42.624;23.386;2023-02-01T03:08:11;94148.41;;;0.06;82.07
7918;BME280;4004;42.624;23.386;2023-02-01T03:10:44;94160.50;;;0.12;81.69
7918;BME280;4004;42.624;23.386;2023-02-01T03:13:18;94172.19;;;0.25;79.94
7918;BME280;4004;42.624;23.386;2023-02-01T03:15:51;94176.41;;;0.26;79.28
7918;BME280;4004;42.624;23.386;2023-02-01T03:18:28;94183.53;;;0.26;79.11
7918;BME280;4004;42.624;23.386;2023-02-01T03:20:59;94185.31;;;0.30;78.40
7918;BME280;4004;42.624;23.386;2023-02-01T03:23:31;94196.81;;;0.39;78.01
7918;BME280;4004;42.624;23.386;2023-02-01T03:26:01;94188.19;;;0.34;77.74
7918;BME280;4004;42.624;23.386;2023-02-01T03:28:29;94199.53;;;0.34;78.10
7918;BME280;4004;42.624;23.386;2023-02-01T03:30:58;94190.63;;;0.30;78.58
7918;BME280;4004;42.624;23.386;2023-02-01T03:33:25;94186.81;;;0.36;78.73
7918;BME280;4004;42.624;23.386;2023-02-01T03:36:03;94188.81;;;0.45;78.27
7918;BME280;4004;42.624;23.386;2023-02-01T03:38:37;94189.63;;;0.59;77.98
7918;BME280;4004;42.624;23.386;2023-02-01T03:41:09;94195.00;;;0.54;78.51
7918;BME280;4004;42.624;23.386;2023-02-01T03:43:44;94195.66;;;0.46;78.38
7918;BME280;4004;42.624;23.386;2023-02-01T03:46:18;94198.22;;;0.51;78.98
7918;BME280;4004;42.624;23.386;2023-02-01T03:48:47;94187.47;;;0.61;78.78
7918;BME280;4004;42.624;23.386;2023-02-01T03:51:17;94199.84;;;0.66;78.21
7918;BME280;4004;42.624;23.386;2023-02-01T03:53:47;94196.31;;;0.70;78.51
7918;BME280;4004;42.624;23.386;2023-02-01T03:56:15;94186.34;;;0.81;78.24
7918;BME280;4004;42.624;23.386;2023-02-01T03:58:43;94195.97;;;0.91;77.91
7918;BME280;4004;42.624;23.386;2023-02-01T04:01:24;94189.38;;;0.88;77.19
7918;BME280;4004;42.624;23.386;2023-02-01T04:03:50;94198.03;;;0.94;76.68
7918;BME280;4004;42.624;23.386;2023-02-01T04:06:19;94182.81;;;0.86;78.54
7918;BME280;4004;42.624;23.386;2023-02-01T04:08:45;94196.16;;;0.80;79.36
7918;BME280;4004;42.624;23.386;2023-02-01T04:11:12;94196.44;;;0.93;79.31
7918;BME280;4004;42.624;23.386;2023-02-01T04:13:39;94195.41;;;0.94;78.27
7918;BME280;4004;42.624;23.386;2023-02-01T04:16:06;94192.44;;;0.95;77.74
7918;BME280;4004;42.624;23.386;2023-02-01T04:18:32;94186.47;;;0.90;77.37
7918;BME280;4004;42.624;23.386;2023-02-01T04:21:00;94188.91;;;0.86;78.80
7918;BME280;4004;42.624;23.386;2023-02-01T04:23:28;94188.72;;;0.82;79.83
7918;BME280;4004;42.624;23.386;2023-02-01T04:25:59;94188.31;;;0.89;79.45
7918;BME280;4004;42.624;23.386;2023-02-01T04:28:26;94185.97;;;0.88;80.59
7918;BME280;4004;42.624;23.386;2023-02-01T04:30:52;94185.84;;;0.79;81.45
7918;BME280;4004;42.624;23.386;2023-02-01T04:33:19;94193.06;;;0.73;82.04
7918;BME280;4004;42.624;23.386;2023-02-01T04:35:46;94199.31;;;0.82;82.42
7918;BME280;4004;42.624;23.386;2023-02-01T04:38:13;94187.72;;;0.78;82.73
7918;BME280;4004;42.624;23.386;2023-02-01T04:40:41;94181.94;;;0.76;83.41
7918;BME280;4004;42.624;23.386;2023-02-01T04:43:08;94189.09;;;0.76;83.76
7918;BME280;4004;42.624;23.386;2023-02-01T04:45:35;94186.97;;;0.92;84.56
7918;BME280;4004;42.624;23.386;2023-02-01T04:48:02;94188.13;;;0.99;84.26
7918;BME280;4004;42.624;23.386;2023-02-01T04:50:29;94183.81;;;0.90;84.11
7918;BME280;4004;42.624;23.386;2023-02-01T04:52:55;94201.38;;;0.99;83.83
7918;BME280;4004;42.624;23.386;2023-02-01T04:55:22;94188.50;;;0.93;84.16
7918;BME280;4004;42.624;23.386;2023-02-01T04:57:50;94191.84;;;0.85;85.63
7918;BME280;4004;42.624;23.386;2023-02-01T05:00:17;94195.97;;;0.91;85.33
7918;BME280;4004;42.624;23.386;2023-02-01T05:02:44;94194.97;;;0.87;86.68
7918;BME280;4004;42.624;23.386;2023-02-01T05:05:11;94206.25;;;0.92;87.00
7918;BME280;4004;42.624;23.386;2023-02-01T05:07:37;94203.41;;;0.89;87.38
7918;BME280;4004;42.624;23.386;2023-02-01T05:10:05;94210.19;;;0.95;88.23
7918;BME280;4004;42.624;23.386;2023-02-01T05:12:33;94206.38;;;0.87;88.21
7918;BME280;4004;42.624;23.386;2023-02-01T05:15:18;94209.88;;;0.82;90.24
7918;BME280;4004;42.624;23.386;2023-02-01T05:17:45;94221.94;;;0.89;89.83
7918;BME280;4004;42.624;23.386;2023-02-01T05:20:11;94211.66;;;0.87;89.32
7918;BME280;4004;42.624;23.386;2023-02-01T05:22:38;94211.44;;;0.83;89.78
7918;BME280;4004;42.624;23.386;2023-02-01T05:25:05;94216.34;;;0.90;90.33
7918;BME280;4004;42.624;23.386;2023-02-01T05:27:32;94221.88;;;0.94;90.51
7918;BME280;4004;42.624;23.386;2023-02-01T05:29:59;94219.34;;;1.02;90.08
7918;BME280;4004;42.624;23.386;2023-02-01T05:32:27;94220.50;;;0.96;90.04
7918;BME280;4004;42.624;23.386;2023-02-01T05:34:53;94218.84;;;1.00;89.51
7918;BME280;4004;42.624;23.386;2023-02-01T05:37:20;94227.28;;;1.16;89.54
7918;BME280;4004;42.624;23.386;2023-02-01T05:39:47;94222.16;;;1.20;90.36
7918;BME280;4004;42.624;23.386;2023-02-01T05:42:14;94216.41;;;1.18;89.47
7918;BME280;4004;42.624;23.386;2023-02-01T05:44:41;94224.25;;;1.23;89.17
7918;BME280;4004;42.624;23.386;2023-02-01T05:47:07;94219.84;;;1.18;89.21
7918;BME280;4004;42.624;23.386;2023-02-01T05:49:36;94218.94;;;1.23;89.60
7918;BME280;4004;42.624;23.386;2023-02-01T05:52:02;94214.44;;;1.23;88.41
7918;BME280;4004;42.624;23.386;2023-02-01T05:54:29;94231.69;;;1.21;88.45
7918;BME280;4004;42.624;23.386;2023-02-01T05:56:56;94226.91;;;1.23;88.94
7918;BME280;4004;42.624;23.386;2023-02-01T05:59:23;94217.09;;;1.23;87.86
7918;BME280;4004;42.624;23.386;2023-02-01T06:01:49;94218.34;;;1.26;88.42
7918;BME280;4004;42.624;23.386;2023-02-01T06:04:16;94226.22;;;1.31;87.90
7918;BME280;4004;42.624;23.386;2023-02-01T06:06:44;94228.28;;;1.34;86.23
7918;BME280;4004;42.624;23.386;2023-02-01T06:09:11;94219.44;;;1.39;85.27
7918;BME280;4004;42.624;23.386;2023-02-01T06:11:39;94225.84;;;1.52;84.42
7918;BME280;4004;42.624;23.386;2023-02-01T06:14:05;94237.22;;;1.52;83.89
7918;BME280;4004;42.624;23.386;2023-02-01T06:16:33;94237.59;;;1.59;83.18
7918;BME280;4004;42.624;23.386;2023-02-01T06:18:59;94233.19;;;1.55;83.75
7918;BME280;4004;42.624;23.386;2023-02-01T06:21:26;94243.56;;;1.51;81.74
7918;BME280;4004;42.624;23.386;2023-02-01T06:23:54;94238.97;;;1.57;81.95
7918;BME280;4004;42.624;23.386;2023-02-01T06:26:23;94238.88;;;1.62;81.78
7918;BME280;4004;42.624;23.386;2023-02-01T06:28:49;94242.31;;;1.62;81.75
7918;BME280;4004;42.624;23.386;2023-02-01T06:31:16;94243.66;;;1.60;81.18
7918;BME280;4004;42.624;23.386;2023-02-01T06:33:43;94245.03;;;1.57;80.14
7918;BME280;4004;42.624;23.386;2023-02-01T06:36:11;94235.72;;;1.60;80.27
7918;BME280;4004;42.624;23.386;2023-02-01T06:38:38;94232.28;;;1.59;79.21
7918;BME280;4004;42.624;23.386;2023-02-01T06:41:07;94231.31;;;1.69;79.54
7918;BME280;4004;42.624;23.386;2023-02-01T06:43:33;94236.88;;;1.81;78.46
7918;BME280;4004;42.624;23.386;2023-02-01T06:46:02;94238.66;;;1.86;77.90
7918;BME280;4004;42.624;23.386;2023-02-01T06:48:29;94241.69;;;1.93;76.42
7918;BME280;4004;42.624;23.386;2023-02-01T06:50:56;94251.47;;;2.06;75.89
7918;BME280;4004;42.624;23.386;2023-02-01T06:53:22;94253.56;;;2.10;75.05
7918;BME280;4004;42.624;23.386;2023-02-01T06:55:53;94256.78;;;2.06;74.31
7918;BME280;4004;42.624;23.386;2023-02-01T06:58:21;94253.84;;;2.08;74.13
7918;BME280;4004;42.624;23.386;2023-02-01T07:00:48;94255.72;;;2.07;73.91
7918;BME280;4004;42.624;23.386;2023-02-01T07:03:16;94262.78;;;2.12;73.27
7918;BME280;4004;42.624;23.386;2023-02-01T07:05:42;94266.97;;;2.13;73.34
7918;BME280;4004;42.624;23.386;2023-02-01T07:08:09;94266.16;;;2.26;73.93
7918;BME280;4004;42.624;23.386;2023-02-01T07:10:37;94276.69;;;2.32;73.14
7918;BME280;4004;42.624;23.386;2023-02-01T07:13:04;94287.50;;;2.21;72.21
7918;BME280;4004;42.624;23.386;2023-02-01T07:15:32;94282.50;;;2.20;72.43
7918;BME280;4004;42.624;23.386;2023-02-01T07:17:59;94276.94;;;2.07;72.76
7918;BME280;4004;42.624;23.386;2023-02-01T07:20:25;94288.50;;;2.12;73.46
7918;BME280;4004;42.624;23.386;2023-02-01T07:22:55;94281.53;;;2.16;74.20
7918;BME280;4004;42.624;23.386;2023-02-01T07:25:22;94280.72;;;2.15;72.83
7918;BME280;4004;42.624;23.386;2023-02-01T07:27:48;94286.84;;;2.16;72.90
7918;BME280;4004;42.624;23.386;2023-02-01T07:30:16;94307.47;;;2.19;72.78
7918;BME280;4004;42.624;23.386;2023-02-01T07:32:44;94307.66;;;2.22;72.49
7918;BME280;4004;42.624;23.386;2023-02-01T07:35:10;94312.63;;;2.38;72.13
7918;BME280;4004;42.624;23.386;2023-02-01T07:37:39;94316.06;;;2.38;71.72
7918;BME280;4004;42.624;23.386;2023-02-01T07:40:06;94313.31;;;2.43;70.70
7918;BME280;4004;42.624;23.386;2023-02-01T07:42:33;94311.63;;;2.47;70.81
7918;BME280;4004;42.624;23.386;2023-02-01T07:45:00;94303.19;;;2.45;70.95
7918;BME280;4004;42.624;23.386;2023-02-01T07:47:27;94312.47;;;2.57;70.28
7918;BME280;4004;42.624;23.386;2023-02-01T07:49:55;94313.75;;;2.59;69.67
7918;BME280;4004;42.624;23.386;2023-02-01T07:52:22;94317.78;;;2.57;69.47
7918;BME280;4004;42.624;23.386;2023-02-01T07:54:49;94334.09;;;2.64;68.43
7918;BME280;4004;42.624;23.386;2023-02-01T07:57:15;94330.13;;;2.75;68.67
7918;BME280;4004;42.624;23.386;2023-02-01T07:59:43;94326.88;;;2.78;67.84
7918;BME280;4004;42.624;23.386;2023-02-01T08:02:23;94315.78;;;2.76;67.75
7918;BME280;4004;42.624;23.386;2023-02-01T08:04:50;94334.28;;;2.67;66.82
7918;BME280;4004;42.624;23.386;2023-02-01T08:07:18;94332.22;;;2.64;67.42
7918;BME280;4004;42.624;23.386;2023-02-01T08:09:45;94344.50;;;2.74;67.32
7918;BME280;4004;42.624;23.386;2023-02-01T08:12:12;94339.25;;;2.83;67.32
7918;BME280;4004;42.624;23.386;2023-02-01T08:14:38;94329.91;;;2.85;66.15
7918;BME280;4004;42.624;23.386;2023-02-01T08:17:06;94341.00;;;2.87;65.82
7918;BME280;4004;42.624;23.386;2023-02-01T08:19:33;94333.41;;;2.95;65.84
7918;BME280;4004;42.624;23.386;2023-02-01T08:21:59;94326.56;;;3.02;65.08
7918;BME280;4004;42.624;23.386;2023-02-01T08:24:32;94331.28;;;3.05;64.25
7918;BME280;4004;42.624;23.386;2023-02-01T08:27:00;94330.56;;;3.14;65.01
7918;BME280;4004;42.624;23.386;2023-02-01T08:29:27;94325.09;;;3.41;64.17
7918;BME280;4004;42.624;23.386;2023-02-01T08:31:54;94335.84;;;3.59;63.53
7918;BME280;4004;42.624;23.386;2023-02-01T08:34:21;94326.81;;;3.68;62.55
7918;BME280;4004;42.624;23.386;2023-02-01T08:36:47;94328.25;;;3.74;61.39
7918;BME280;4004;42.624;23.386;2023-02-01T08:39:14;94337.47;;;3.77;61.42
7918;BME280;4004;42.624;23.386;2023-02-01T08:41:42;94334.03;;;3.77;61.87
7918;BME280;4004;42.624;23.386;2023-02-01T08:44:29;94338.91;;;3.83;61.16
7918;BME280;4004;42.624;23.386;2023-02-01T08:46:56;94338.81;;;3.97;60.43
7918;BME280;4004;42.624;23.386;2023-02-01T08:49:22;94343.22;;;4.02;60.36
7918;BME280;4004;42.624;23.386;2023-02-01T08:51:49;94327.09;;;3.98;60.00
7918;BME280;4004;42.624;23.386;2023-02-01T08:54:16;94334.13;;;3.94;59.38
7918;BME280;4004;42.624;23.386;2023-02-01T08:56:44;94328.03;;;3.93;58.81
7918;BME280;4004;42.624;23.386;2023-02-01T08:59:11;94327.03;;;3.81;58.49
7918;BME280;4004;42.624;23.386;2023-02-01T09:01:37;94324.47;;;3.76;58.82
7918;BME280;4004;42.624;23.386;2023-02-01T09:04:04;94329.50;;;3.77;59.18
7918;BME280;4004;42.624;23.386;2023-02-01T09:06:31;94327.09;;;3.98;59.41
7918;BME280;4004;42.624;23.386;2023-02-01T09:08:57;94331.53;;;4.29;58.51
7918;BME280;4004;42.624;23.386;2023-02-01T09:11:24;94326.09;;;4.34;57.22
7918;BME280;4004;42.624;23.386;2023-02-01T09:13:53;94327.53;;;4.57;56.98
7918;BME280;4004;42.624;23.386;2023-02-01T09:16:20;94335.03;;;4.55;57.14
7918;BME280;4004;42.624;23.386;2023-02-01T09:18:46;94353.06;;;4.59;57.10
7918;BME280;4004;42.624;23.386;2023-02-01T09:21:13;94338.66;;;4.60;57.14
7918;BME280;4004;42.624;23.386;2023-02-01T09:23:40;94338.50;;;4.56;57.36
7918;BME280;4004;42.624;23.386;2023-02-01T09:26:07;94346.78;;;4.54;56.88
7918;BME280;4004;42.624;23.386;2023-02-01T09:28:34;94344.75;;;4.60;56.63
7918;BME280;4004;42.624;23.386;2023-02-01T09:31:02;94329.38;;;4.40;57.12
7918;BME280;4004;42.624;23.386;2023-02-01T09:33:29;94334.69;;;4.31;57.43
7918;BME280;4004;42.624;23.386;2023-02-01T09:35:56;94344.25;;;4.32;57.34
7918;BME280;4004;42.624;23.386;2023-02-01T09:38:23;94329.84;;;4.33;57.48
7918;BME280;4004;42.624;23.386;2023-02-01T09:40:53;94327.84;;;4.47;58.24
7918;BME280;4004;42.624;23.386;2023-02-01T09:43:28;94334.44;;;4.76;57.95
7918;BME280;4004;42.624;23.386;2023-02-01T09:46:06;94336.19;;;4.98;56.74
7918;BME280;4004;42.624;23.386;2023-02-01T09:48:41;94319.25;;;5.03;55.75
7918;BME280;4004;42.624;23.386;2023-02-01T09:51:13;94323.47;;;4.86;55.59
7918;BME280;4004;42.624;23.386;2023-02-01T09:53:43;94323.00;;;4.58;55.50
7918;BME280;4004;42.624;23.386;2023-02-01T09:56:13;94323.91;;;4.62;55.60
7918;BME280;4004;42.624;23.386;2023-02-01T09:58:42;94316.75;;;4.71;55.59
7918;BME280;4004;42.624;23.386;2023-02-01T10:01:16;94303.28;;;4.76;55.36
7918;BME280;4004;42.624;23.386;2023-02-01T10:03:44;94303.56;;;4.66;54.88
7918;BME280;4004;42.624;23.386;2023-02-01T10:06:22;94299.66;;;4.64;54.86
7918;BME280;4004;42.624;23.386;2023-02-01T10:09:21;94303.25;;;4.59;54.52
7918;BME280;4004;42.624;23.386;2023-02-01T10:12:04;94308.13;;;4.66;54.64
7918;BME280;4004;42.624;23.386;2023-02-01T10:14:53;94298.22;;;4.57;54.62
7918;BME280;4004;42.624;23.386;2023-02-01T10:17:37;94293.09;;;4.70;54.72
7918;BME280;4004;42.624;23.386;2023-02-01T10:20:16;94291.34;;;4.56;54.98
7918;BME280;4004;42.624;23.386;2023-02-01T10:22:47;94289.63;;;4.61;54.94
7918;BME280;4004;42.624;23.386;2023-02-01T10:25:23;94274.59;;;4.65;54.90
7918;BME280;4004;42.624;23.386;2023-02-01T10:27:50;94274.09;;;4.80;54.12
7918;BME280;4004;42.624;23.386;2023-02-01T10:30:20;94260.78;;;4.97;54.40
7918;BME280;4004;42.624;23.386;2023-02-01T10:32:52;94266.38;;;5.13;54.01
7918;BME280;4004;42.624;23.386;2023-02-01T10:35:24;94269.69;;;5.10;53.82
7918;BME280;4004;42.624;23.386;2023-02-01T10:37:53;94257.91;;;5.20;53.82
7918;BME280;4004;42.624;23.386;2023-02-01T10:40:21;94254.94;;;5.13;54.31
7918;BME280;4004;42.624;23.386;2023-02-01T10:42:51;94255.28;;;5.11;53.59
7918;BME280;4004;42.624;23.386;2023-02-01T10:45:20;94258.25;;;5.10;53.60
7918;BME280;4004;42.624;23.386;2023-02-01T10:47:51;94221.28;;;4.99;53.25
7918;BME280;4004;42.624;23.386;2023-02-01T10:50:25;94245.25;;;4.99;53.47
7918;BME280;4004;42.624;23.386;2023-02-01T10:52:59;94261.53;;;5.07;52.53
7918;BME280;4004;42.624;23.386;2023-02-01T10:55:33;94251.50;;;5.12;53.22
7918;BME280;4004;42.624;23.386;2023-02-01T10:58:03;94250.88;;;5.15;52.55
7918;BME280;4004;42.624;23.386;2023-02-01T11:00:38;94237.53;;;5.24;52.06
7918;BME280;4004;42.624;23.386;2023-02-01T11:03:38;94250.09;;;5.15;53.24
7918;BME280;4004;42.624;23.386;2023-02-01T11:06:18;94257.59;;;5.30;52.77
7918;BME280;4004;42.624;23.386;2023-02-01T11:08:48;94223.84;;;5.34;52.54
7918;BME280;4004;42.624;23.386;2023-02-01T11:11:15;94250.56;;;5.17;52.35
7918;BME280;4004;42.624;23.386;2023-02-01T11:13:42;94256.34;;;5.19;52.71
7918;BME280;4004;42.624;23.386;2023-02-01T11:16:12;94255.25;;;5.20;52.24
7918;BME280;4004;42.624;23.386;2023-02-01T11:18:41;94251.59;;;5.33;52.43
7918;BME280;4004;42.624;23.386;2023-02-01T11:21:09;94230.28;;;5.33;51.69
7918;BME280;4004;42.624;23.386;2023-02-01T11:23:41;94249.13;;;5.28;51.43
7918;BME280;4004;42.624;23.386;2023-02-01T11:26:11;94240.59;;;5.44;52.58
7918;BME280;4004;42.624;23.386;2023-02-01T11:28:43;94247.69;;;5.31;51.36
7918;BME280;4004;42.624;23.386;2023-02-01T11:31:13;94235.31;;;5.26;51.94
7918;BME280;4004;42.624;23.386;2023-02-01T11:33:48;94235.75;;;5.37;51.93
7918;BME280;4004;42.624;23.386;2023-02-01T11:36:18;94244.38;;;5.43;51.76
7918;BME280;4004;42.624;23.386;2023-02-01T11:38:52;94227.56;;;5.51;51.85
7918;BME280;4004;42.624;23.386;2023-02-01T11:41:23;94231.06;;;5.43;50.75
7918;BME280;4004;42.624;23.386;2023-02-01T11:43:56;94240.13;;;5.50;51.11
7918;BME280;4004;42.624;23.386;2023-02-01T11:46:28;94222.84;;;5.56;51.07
7918;BME280;4004;42.624;23.386;2023-02-01T11:48:57;94201.34;;;5.53;50.85
7918;BME280;4004;42.624;23.386;2023-02-01T11:51:46;94229.41;;;5.59;51.15
7918;BME280;4004;42.624;23.386;2023-02-01T11:54:27;94211.91;;;5.49;51.40
7918;BME280;4004;42.624;23.386;2023-02-01T11:57:07;94202.34;;;5.39;51.61
7918;BME280;4004;42.624;23.386;2023-02-01T11:59:53;94203.00;;;5.36;51.88
7918;BME280;4004;42.624;23.386;2023-02-01T12:02:49;94199.44;;;5.24;51.59
7918;BME280;4004;42.624;23.386;2023-02-01T12:05:37;94188.56;;;5.37;51.75
7918;BME280;4004;42.624;23.386;2023-02-01T12:11:16;94190.88;;;5.48;51.84
7918;BME280;4004;42.624;23.386;2023-02-01T12:13:49;94196.75;;;5.32;52.07
7918;BME280;4004;42.624;23.386;2023-02-01T12:16:29;94190.47;;;5.28;52.09
7918;BME280;4004;42.624;23.386;2023-02-01T12:19:14;94197.53;;;5.24;52.00
7918;BME280;4004;42.624;23.386;2023-02-01T12:21:55;94181.09;;;5.22;52.54
7918;BME280;4004;42.624;23.386;2023-02-01T12:24:38;94199.94;;;5.17;52.57
7918;BME280;4004;42.624;23.386;2023-02-01T12:27:22;94194.56;;;5.26;51.97
7918;BME280;4004;42.624;23.386;2023-02-01T12:30:10;94201.59;;;5.30;51.67
7918;BME280;4004;42.624;23.386;2023-02-01T12:32:55;94208.78;;;5.38;52.33
7918;BME280;4004;42.624;23.386;2023-02-01T12:35:49;94180.97;;;5.48;51.82
7918;BME280;4004;42.624;23.386;2023-02-01T12:41:45;94172.78;;;5.24;52.50
7918;BME280;4004;42.624;23.386;2023-02-01T12:44:24;94193.66;;;5.13;52.03
7918;BME280;4004;42.624;23.386;2023-02-01T12:46:54;94186.09;;;5.24;52.17
7918;BME280;4004;42.624;23.386;2023-02-01T12:49:27;94194.72;;;5.29;52.11
7918;BME280;4004;42.624;23.386;2023-02-01T12:52:03;94193.34;;;5.53;51.56
7918;BME280;4004;42.624;23.386;2023-02-01T12:54:37;94198.88;;;5.48;51.25
7918;BME280;4004;42.624;23.386;2023-02-01T12:57:11;94190.69;;;5.53;50.66
7918;BME280;4004;42.624;23.386;2023-02-01T12:59:41;94194.97;;;5.45;50.49
7918;BME280;4004;42.624;23.386;2023-02-01T13:02:15;94198.97;;;5.60;50.43
7918;BME280;4004;42.624;23.386;2023-02-01T13:04:53;94194.66;;;5.76;50.46
7918;BME280;4004;42.624;23.386;2023-02-01T13:07:26;94206.88;;;5.77;50.23
7918;BME280;4004;42.624;23.386;2023-02-01T13:10:00;94197.78;;;5.78;49.24
7918;BME280;4004;42.624;23.386;2023-02-01T13:12:33;94181.06;;;5.69;49.43
7918;BME280;4004;42.624;23.386;2023-02-01T13:15:05;94188.91;;;5.66;49.65
7918;BME280;4004;42.624;23.386;2023-02-01T13:17:37;94189.50;;;5.71;49.80
7918;BME280;4004;42.624;23.386;2023-02-01T13:20:16;94196.44;;;5.64;49.82
7918;BME280;4004;42.624;23.386;2023-02-01T13:22:46;94189.88;;;5.61;50.05
7918;BME280;4004;42.624;23.386;2023-02-01T13:25:30;94180.59;;;5.67;49.84
7918;BME280;4004;42.624;23.386;2023-02-01T13:28:03;94191.56;;;5.66;49.59
7918;BME280;4004;42.624;23.386;2023-02-01T13:30:41;94195.00;;;5.66;49.08
7918;BME280;4004;42.624;23.386;2023-02-01T13:33:27;94192.81;;;5.68;50.17
7918;BME280;4004;42.624;23.386;2023-02-01T13:36:10;94205.97;;;5.73;49.17
7918;BME280;4004;42.624;23.386;2023-02-01T13:41:53;94192.41;;;5.87;49.60
7918;BME280;4004;42.624;23.386;2023-02-01T13:44:28;94196.47;;;5.85;48.74
7918;BME280;4004;42.624;23.386;2023-02-01T13:47:00;94199.09;;;5.93;48.13
7918;BME280;4004;42.624;23.386;2023-02-01T13:49:31;94186.31;;;5.78;48.50
7918;BME280;4004;42.624;23.386;2023-02-01T13:51:58;94199.06;;;5.72;48.27
7918;BME280;4004;42.624;23.386;2023-02-01T13:54:31;94193.75;;;5.72;47.59